sensor_id;sensor_type;location;lat;lon;timestamp;temperature;humidity
22081;DHT22;11207;59.512;18.050;2022-12-16T00:01:13;-14.20;99.90
22081;DHT22;11207;59.512;18.050;2022-12-16T00:03:40;-14.10;99.90
22081;DHT22;11207;59.512;18.050;2022-12-16T00:06:07;-14.20;99.90
22081;DHT22;11207;59.512;18.050;2022-12-16T00:08:35;-14.20;99.90
22081;DHT22;11207;59.512;18.050;2022-12-16T00:11:01;-14.30;99.90
22081;DHT22;11207;59.512;18.050;2022-12-16T00:13:28;-14.20;99.90
22081;DHT22;11207;59.512;18.050;2022-12-16T00:15:54;-14.30;99.90
22081;DHT22;11207;59.512;18.050;2022-12-16T00:18:20;-14.30;99.90
22081;DHT22;11207;59.512;18.050;2022-12-16T00:20:47;-14.40;99.90
22081;DHT22;11207;59.512;18.050;2022-12-16T00:23:13;-14.50;99.90
22081;DHT22;11207;59.512;18.050;2022-12-16T00:25:41;-14.60;99.90
22081;DHT22;11207;59.512;18.050;2022-12-16T00:28:07;-14.60;99.90
22081;DHT22;11207;59.512;18.050;2022-12-16T00:30:33;-14.60;99.90
22081;DHT22;11207;59.512;18.050;2022-12-16T00:32:59;-14.70;99.90
22081;DHT22;11207;59.512;18.050;2022-12-16T00:35:24;-14.60;99.90
22081;DHT22;11207;59.512;18.050;2022-12-16T00:37:50;-14.50;99.90
22081;DHT22;11207;59.512;18.050;2022-12-16T00:40:16;-14.50;99.90
22081;DHT22;11207;59.512;18.050;2022-12-16T00:42:41;-14.30;99.90
22081;DHT22;11207;59.512;18.050;2022-12-16T00:45:07;-14.20;99.90
22081;DHT22;11207;59.512;18.050;2022-12-16T00:47:33;-14.10;99.90
22081;DHT22;11207;59.512;18.050;2022-12-16T00:49:59;-14.00;99.90
22081;DHT22;11207;59.512;18.050;2022-12-16T00:52:24;-13.90;99.90
22081;DHT22;11207;59.512;18.050;2022-12-16T00:54:50;-13.90;99.90
22081;DHT22;11207;59.512;18.050;2022-12-16T00:57:15;-13.80;99.90
22081;DHT22;11207;59.512;18.050;2022-12-16T00:59:41;-13.70;99.90
22081;DHT22;11207;59.512;18.050;2022-12-16T01:02:06;-13.70;99.90
22081;DHT22;11207;59.512;18.050;2022-12-16T01:04:32;-13.70;99.90
22081;DHT22;11207;59.512;18.050;2022-12-16T01:06:57;-13.70;99.90
22081;DHT22;11207;59.512;18.050;2022-12-16T01:09:23;-13.70;99.90
22081;DHT22;11207;59.512;18.050;2022-12-16T01:11:49;-13.60;99.90
22081;DHT22;11207;59.512;18.050;2022-12-16T01:14:14;-13.50;99.90
22081;DHT22;11207;59.512;18.050;2022-12-16T01:16:40;-13.50;99.90
22081;DHT22;11207;59.512;18.050;2022-12-16T01:19:06;-13.50;99.90
22081;DHT22;11207;59.512;18.050;2022-12-16T01:21:31;-13.40;99.90
22081;DHT22;11207;59.512;18.050;2022-12-16T01:23:57;-13.40;99.90
22081;DHT22;11207;59.512;18.050;2022-12-16T01:26:22;-13.40;99.90
22081;DHT22;11207;59.512;18.050;2022-12-16T01:28:48;-13.60;99.90
22081;DHT22;11207;59.512;18.050;2022-12-16T01:31:16;-13.60;99.90
22081;DHT22;11207;59.512;18.050;2022-12-16T01:33:42;-13.70;99.90
22081;DHT22;11207;59.512;18.050;2022-12-16T01:36:08;-13.70;99.90
22081;DHT22;11207;59.512;18.050;2022-12-16T01:38:34;-13.60;99.90
22081;DHT22;11207;59.512;18.050;2022-12-16T01:41:01;-13.70;99.90
22081;DHT22;11207;59.512;18.050;2022-12-16T01:43:29;-13.60;99.90
22081;DHT22;11207;59.512;18.050;2022-12-16T01:51:27;-13.80;99.90
22081;DHT22;11207;59.512;18.050;2022-12-16T01:56:30;-13.90;99.90
22081;DHT22;11207;59.512;18.050;2022-12-16T01:58:58;-13.90;99.90
22081;DHT22;11207;59.512;18.050;2022-12-16T02:01:24;-14.00;99.90
22081;DHT22;11207;59.512;18.050;2022-12-16T02:03:52;-14.00;99.90
22081;DHT22;11207;59.512;18.050;2022-12-16T02:06:19;-13.90;99.90
22081;DHT22;11207;59.512;18.050;2022-12-16T02:08:44;-14.10;99.90
22081;DHT22;11207;59.512;18.050;2022-12-16T02:14:18;-14.10;99.90
22081;DHT22;11207;59.512;18.050;2022-12-16T02:16:59;-14.30;99.90
22081;DHT22;11207;59.512;18.050;2022-12-16T02:27:48;-14.70;99.90
22081;DHT22;11207;59.512;18.050;2022-12-16T02:30:29;-14.60;99.90
22081;DHT22;11207;59.512;18.050;2022-12-16T02:35:38;-14.40;99.90
22081;DHT22;11207;59.512;18.050;2022-12-16T02:41:03;-14.00;99.90
22081;DHT22;11207;59.512;18.050;2022-12-16T02:46:17;-14.00;99.90
22081;DHT22;11207;59.512;18.050;2022-12-16T02:48:43;-14.00;99.90
22081;DHT22;11207;59.512;18.050;2022-12-16T02:51:09;-14.00;99.90
22081;DHT22;11207;59.512;18.050;2022-12-16T02:53:37;-14.10;99.90
22081;DHT22;11207;59.512;18.050;2022-12-16T02:59:14;-14.20;99.90
22081;DHT22;11207;59.512;18.050;2022-12-16T03:04:21;-13.90;99.90
22081;DHT22;11207;59.512;18.050;2022-12-16T03:06:52;-13.80;99.90
22081;DHT22;11207;59.512;18.050;2022-12-16T03:09:23;-13.60;99.90
22081;DHT22;11207;59.512;18.050;2022-12-16T03:11:51;-13.50;99.90
22081;DHT22;11207;59.512;18.050;2022-12-16T03:14:19;-13.30;99.90
22081;DHT22;11207;59.512;18.050;2022-12-16T03:16:46;-13.20;99.90
22081;DHT22;11207;59.512;18.050;2022-12-16T03:19:12;-13.20;99.90
22081;DHT22;11207;59.512;18.050;2022-12-16T03:22:06;-13.10;99.90
22081;DHT22;11207;59.512;18.050;2022-12-16T03:24:30;-13.10;99.90
22081;DHT22;11207;59.512;18.050;2022-12-16T03:29:50;-13.10;99.90
22081;DHT22;11207;59.512;18.050;2022-12-16T03:35:01;-13.00;99.90
22081;DHT22;11207;59.512;18.050;2022-12-16T03:37:29;-13.00;99.90
22081;DHT22;11207;59.512;18.050;2022-12-16T03:39:57;-13.00;99.90
22081;DHT22;11207;59.512;18.050;2022-12-16T03:42:25;-13.00;99.90
22081;DHT22;11207;59.512;18.050;2022-12-16T03:44:50;-13.00;99.90
22081;DHT22;11207;59.512;18.050;2022-12-16T03:47:16;-13.00;99.90
22081;DHT22;11207;59.512;18.050;2022-12-16T03:49:41;-13.10;99.90
22081;DHT22;11207;59.512;18.050;2022-12-16T03:52:07;-13.10;99.90
22081;DHT22;11207;59.512;18.050;2022-12-16T03:54:33;-13.20;99.90
22081;DHT22;11207;59.512;18.050;2022-12-16T03:56:59;-13.40;99.90
22081;DHT22;11207;59.512;18.050;2022-12-16T03:59:24;-13.40;99.90
22081;DHT22;11207;59.512;18.050;2022-12-16T04:01:50;-13.50;99.90
22081;DHT22;11207;59.512;18.050;2022-12-16T04:04:16;-13.40;99.90
22081;DHT22;11207;59.512;18.050;2022-12-16T04:06:42;-13.40;99.90
22081;DHT22;11207;59.512;18.050;2022-12-16T04:09:08;-13.40;99.90
22081;DHT22;11207;59.512;18.050;2022-12-16T04:11:34;-13.40;99.90
22081;DHT22;11207;59.512;18.050;2022-12-16T04:14:18;-13.40;99.90
22081;DHT22;11207;59.512;18.050;2022-12-16T04:17:03;-13.40;99.90
22081;DHT22;11207;59.512;18.050;2022-12-16T04:19:48;-13.40;99.90
22081;DHT22;11207;59.512;18.050;2022-12-16T04:22:38;-13.40;99.90
22081;DHT22;11207;59.512;18.050;2022-12-16T04:25:31;-13.40;99.90
22081;DHT22;11207;59.512;18.050;2022-12-16T04:27:58;-13.40;99.90
22081;DHT22;11207;59.512;18.050;2022-12-16T04:30:24;-13.60;99.90
22081;DHT22;11207;59.512;18.050;2022-12-16T04:33:02;-13.80;99.90
22081;DHT22;11207;59.512;18.050;2022-12-16T04:35:47;-14.10;99.90
22081;DHT22;11207;59.512;18.050;2022-12-16T04:38:31;-14.00;99.90
22081;DHT22;11207;59.512;18.050;2022-12-16T04:41:15;-13.80;99.90
22081;DHT22;11207;59.512;18.050;2022-12-16T04:43:59;-13.80;99.90
22081;DHT22;11207;59.512;18.050;2022-12-16T04:46:44;-13.80;99.90
22081;DHT22;11207;59.512;18.050;2022-12-16T04:49:28;-13.80;99.90
22081;DHT22;11207;59.512;18.050;2022-12-16T04:52:12;-13.70;99.90
22081;DHT22;11207;59.512;18.050;2022-12-16T04:54:57;-13.70;99.90
22081;DHT22;11207;59.512;18.050;2022-12-16T04:57:46;-13.80;99.90
22081;DHT22;11207;59.512;18.050;2022-12-16T05:00:31;-13.70;99.90
22081;DHT22;11207;59.512;18.050;2022-12-16T05:03:15;-13.60;99.90
22081;DHT22;11207;59.512;18.050;2022-12-16T05:05:59;-13.60;99.90
22081;DHT22;11207;59.512;18.050;2022-12-16T05:08:43;-13.70;99.90
22081;DHT22;11207;59.512;18.050;2022-12-16T05:11:27;-13.70;99.90
22081;DHT22;11207;59.512;18.050;2022-12-16T05:14:11;-13.80;99.90
22081;DHT22;11207;59.512;18.050;2022-12-16T05:16:55;-13.80;99.90
22081;DHT22;11207;59.512;18.050;2022-12-16T05:19:39;-13.80;99.90
22081;DHT22;11207;59.512;18.050;2022-12-16T05:22:23;-13.70;99.90
22081;DHT22;11207;59.512;18.050;2022-12-16T05:25:08;-13.60;99.90
22081;DHT22;11207;59.512;18.050;2022-12-16T05:27:53;-13.70;99.90
22081;DHT22;11207;59.512;18.050;2022-12-16T05:30:37;-13.80;99.90
22081;DHT22;11207;59.512;18.050;2022-12-16T05:33:22;-14.10;99.90
22081;DHT22;11207;59.512;18.050;2022-12-16T05:36:07;-14.40;99.90
22081;DHT22;11207;59.512;18.050;2022-12-16T05:38:51;-14.60;99.90
22081;DHT22;11207;59.512;18.050;2022-12-16T05:41:36;-14.80;99.90
22081;DHT22;11207;59.512;18.050;2022-12-16T05:44:20;-15.00;99.90
22081;DHT22;11207;59.512;18.050;2022-12-16T05:47:06;-15.10;99.90
22081;DHT22;11207;59.512;18.050;2022-12-16T05:49:50;-15.20;99.90
22081;DHT22;11207;59.512;18.050;2022-12-16T05:52:34;-15.10;99.90
22081;DHT22;11207;59.512;18.050;2022-12-16T05:55:18;-15.00;99.90
22081;DHT22;11207;59.512;18.050;2022-12-16T05:58:02;-14.80;99.90
22081;DHT22;11207;59.512;18.050;2022-12-16T06:00:46;-14.70;99.90
22081;DHT22;11207;59.512;18.050;2022-12-16T06:03:31;-14.60;99.90
22081;DHT22;11207;59.512;18.050;2022-12-16T06:06:15;-14.40;99.90
22081;DHT22;11207;59.512;18.050;2022-12-16T06:08:59;-14.20;99.90
22081;DHT22;11207;59.512;18.050;2022-12-16T06:11:44;-13.90;99.90
22081;DHT22;11207;59.512;18.050;2022-12-16T06:14:28;-14.00;99.90
22081;DHT22;11207;59.512;18.050;2022-12-16T06:17:12;-14.00;99.90
22081;DHT22;11207;59.512;18.050;2022-12-16T06:19:56;-14.10;99.90
22081;DHT22;11207;59.512;18.050;2022-12-16T06:22:40;-14.20;99.90
22081;DHT22;11207;59.512;18.050;2022-12-16T06:25:25;-14.20;99.90
22081;DHT22;11207;59.512;18.050;2022-12-16T06:28:09;-14.00;99.90
22081;DHT22;11207;59.512;18.050;2022-12-16T06:30:53;-14.20;99.90
22081;DHT22;11207;59.512;18.050;2022-12-16T06:33:37;-14.30;99.90
22081;DHT22;11207;59.512;18.050;2022-12-16T06:36:21;-14.40;99.90
22081;DHT22;11207;59.512;18.050;2022-12-16T06:39:05;-14.50;99.90
22081;DHT22;11207;59.512;18.050;2022-12-16T06:41:50;-14.40;99.90
22081;DHT22;11207;59.512;18.050;2022-12-16T06:44:34;-14.40;99.90
22081;DHT22;11207;59.512;18.050;2022-12-16T06:47:18;-14.50;99.90
22081;DHT22;11207;59.512;18.050;2022-12-16T06:50:03;-14.60;99.90
22081;DHT22;11207;59.512;18.050;2022-12-16T06:52:47;-14.50;99.90
22081;DHT22;11207;59.512;18.050;2022-12-16T06:55:31;-14.40;99.90
22081;DHT22;11207;59.512;18.050;2022-12-16T06:58:18;-14.20;99.90
22081;DHT22;11207;59.512;18.050;2022-12-16T07:01:02;-14.20;99.90
22081;DHT22;11207;59.512;18.050;2022-12-16T07:03:46;-14.10;99.90
22081;DHT22;11207;59.512;18.050;2022-12-16T07:06:31;-14.10;99.90
22081;DHT22;11207;59.512;18.050;2022-12-16T07:09:15;-14.00;99.90
22081;DHT22;11207;59.512;18.050;2022-12-16T07:12:02;-14.10;99.90
22081;DHT22;11207;59.512;18.050;2022-12-16T07:14:47;-14.10;99.90
22081;DHT22;11207;59.512;18.050;2022-12-16T07:17:31;-14.20;99.90
22081;DHT22;11207;59.512;18.050;2022-12-16T07:20:15;-14.20;99.90
22081;DHT22;11207;59.512;18.050;2022-12-16T07:22:59;-14.20;99.90
22081;DHT22;11207;59.512;18.050;2022-12-16T07:25:43;-14.30;99.90
22081;DHT22;11207;59.512;18.050;2022-12-16T07:28:27;-14.40;99.90
22081;DHT22;11207;59.512;18.050;2022-12-16T07:31:11;-14.40;99.90
22081;DHT22;11207;59.512;18.050;2022-12-16T07:33:55;-14.30;99.90
22081;DHT22;11207;59.512;18.050;2022-12-16T07:36:40;-14.20;99.90
22081;DHT22;11207;59.512;18.050;2022-12-16T07:39:24;-14.10;99.90
22081;DHT22;11207;59.512;18.050;2022-12-16T07:42:08;-14.20;99.90
22081;DHT22;11207;59.512;18.050;2022-12-16T07:45:06;-14.30;99.90
22081;DHT22;11207;59.512;18.050;2022-12-16T07:47:50;-14.20;99.90
22081;DHT22;11207;59.512;18.050;2022-12-16T07:50:36;-14.40;99.90
22081;DHT22;11207;59.512;18.050;2022-12-16T07:53:20;-14.60;99.90
22081;DHT22;11207;59.512;18.050;2022-12-16T07:56:05;-14.70;99.90
22081;DHT22;11207;59.512;18.050;2022-12-16T07:58:50;-14.90;99.90
22081;DHT22;11207;59.512;18.050;2022-12-16T08:01:35;-15.10;99.90
22081;DHT22;11207;59.512;18.050;2022-12-16T08:04:19;-15.30;99.90
22081;DHT22;11207;59.512;18.050;2022-12-16T08:07:03;-15.30;99.90
22081;DHT22;11207;59.512;18.050;2022-12-16T08:09:47;-15.20;99.90
22081;DHT22;11207;59.512;18.050;2022-12-16T08:12:31;-15.00;99.90
22081;DHT22;11207;59.512;18.050;2022-12-16T08:15:16;-14.90;99.90
22081;DHT22;11207;59.512;18.050;2022-12-16T08:18:00;-14.80;99.90
22081;DHT22;11207;59.512;18.050;2022-12-16T08:20:44;-14.70;99.90
22081;DHT22;11207;59.512;18.050;2022-12-16T08:23:29;-14.50;99.90
22081;DHT22;11207;59.512;18.050;2022-12-16T08:26:13;-14.40;99.90
22081;DHT22;11207;59.512;18.050;2022-12-16T08:28:57;-14.60;99.90
22081;DHT22;11207;59.512;18.050;2022-12-16T08:31:57;-14.70;99.90
22081;DHT22;11207;59.512;18.050;2022-12-16T08:34:42;-14.70;99.90
22081;DHT22;11207;59.512;18.050;2022-12-16T08:37:26;-14.60;99.90
22081;DHT22;11207;59.512;18.050;2022-12-16T08:40:10;-14.50;99.90
22081;DHT22;11207;59.512;18.050;2022-12-16T08:42:56;-14.50;99.90
22081;DHT22;11207;59.512;18.050;2022-12-16T08:45:41;-14.50;99.90
22081;DHT22;11207;59.512;18.050;2022-12-16T08:48:26;-14.50;99.90
22081;DHT22;11207;59.512;18.050;2022-12-16T08:51:10;-14.70;99.90
22081;DHT22;11207;59.512;18.050;2022-12-16T08:53:55;-14.70;99.90
22081;DHT22;11207;59.512;18.050;2022-12-16T08:56:40;-14.70;99.90
22081;DHT22;11207;59.512;18.050;2022-12-16T08:59:24;-14.60;99.90
22081;DHT22;11207;59.512;18.050;2022-12-16T09:02:10;-14.40;99.90
22081;DHT22;11207;59.512;18.050;2022-12-16T09:04:54;-14.40;99.90
22081;DHT22;11207;59.512;18.050;2022-12-16T09:07:38;-14.40;99.90
22081;DHT22;11207;59.512;18.050;2022-12-16T09:10:22;-14.40;99.90
22081;DHT22;11207;59.512;18.050;2022-12-16T09:13:12;-14.40;99.90
22081;DHT22;11207;59.512;18.050;2022-12-16T09:15:57;-14.30;99.90
22081;DHT22;11207;59.512;18.050;2022-12-16T09:18:41;-14.40;99.90
22081;DHT22;11207;59.512;18.050;2022-12-16T09:21:26;-14.40;99.90
22081;DHT22;11207;59.512;18.050;2022-12-16T09:24:09;-14.50;99.90
22081;DHT22;11207;59.512;18.050;2022-12-16T09:26:54;-14.40;99.90
22081;DHT22;11207;59.512;18.050;2022-12-16T09:29:38;-14.30;99.90
22081;DHT22;11207;59.512;18.050;2022-12-16T09:32:22;-14.40;99.90
22081;DHT22;11207;59.512;18.050;2022-12-16T09:35:06;-14.50;99.90
22081;DHT22;11207;59.512;18.050;2022-12-16T09:37:50;-14.60;99.90
22081;DHT22;11207;59.512;18.050;2022-12-16T09:40:37;-14.60;99.90
22081;DHT22;11207;59.512;18.050;2022-12-16T09:44:10;-14.50;99.90
22081;DHT22;11207;59.512;18.050;2022-12-16T09:47:09;-14.40;99.90
22081;DHT22;11207;59.512;18.050;2022-12-16T09:49:57;-14.20;99.90
22081;DHT22;11207;59.512;18.050;2022-12-16T09:52:55;-14.00;99.90
22081;DHT22;11207;59.512;18.050;2022-12-16T09:55:43;-13.80;99.90
22081;DHT22;11207;59.512;18.050;2022-12-16T09:58:41;-13.50;99.90
22081;DHT22;11207;59.512;18.050;2022-12-16T10:01:29;-13.40;99.90
22081;DHT22;11207;59.512;18.050;2022-12-16T10:04:15;-13.50;99.90
22081;DHT22;11207;59.512;18.050;2022-12-16T10:07:00;-13.60;99.90
22081;DHT22;11207;59.512;18.050;2022-12-16T10:22:56;-13.30;99.90
22081;DHT22;11207;59.512;18.050;2022-12-16T10:29:18;-13.10;99.90
22081;DHT22;11207;59.512;18.050;2022-12-16T10:32:33;-13.00;99.90
22081;DHT22;11207;59.512;18.050;2022-12-16T10:38:35;-12.80;99.90
22081;DHT22;11207;59.512;18.050;2022-12-16T10:41:40;-12.80;99.90
22081;DHT22;11207;59.512;18.050;2022-12-16T10:44:36;-12.60;99.90
22081;DHT22;11207;59.512;18.050;2022-12-16T10:47:23;-12.50;99.90
22081;DHT22;11207;59.512;18.050;2022-12-16T10:50:12;-12.20;99.90
22081;DHT22;11207;59.512;18.050;2022-12-16T10:53:14;-12.00;99.90
22081;DHT22;11207;59.512;18.050;2022-12-16T10:59:04;-11.50;99.90
22081;DHT22;11207;59.512;18.050;2022-12-16T11:02:02;-11.40;99.90
22081;DHT22;11207;59.512;18.050;2022-12-16T11:04:47;-11.30;99.90
22081;DHT22;11207;59.512;18.050;2022-12-16T11:10:35;-11.40;99.90
22081;DHT22;11207;59.512;18.050;2022-12-16T11:13:34;-11.20;99.90
22081;DHT22;11207;59.512;18.050;2022-12-16T11:16:21;-11.10;99.90
22081;DHT22;11207;59.512;18.050;2022-12-16T11:19:22;-11.00;99.90
22081;DHT22;11207;59.512;18.050;2022-12-16T11:25:19;-10.90;99.90
22081;DHT22;11207;59.512;18.050;2022-12-16T11:28:17;-10.80;99.90
22081;DHT22;11207;59.512;18.050;2022-12-16T11:31:05;-10.80;99.90
22081;DHT22;11207;59.512;18.050;2022-12-16T11:33:52;-10.70;99.90
22081;DHT22;11207;59.512;18.050;2022-12-16T11:36:38;-10.60;99.90
22081;DHT22;11207;59.512;18.050;2022-12-16T11:39:25;-10.40;99.90
22081;DHT22;11207;59.512;18.050;2022-12-16T11:42:23;-10.40;99.90
22081;DHT22;11207;59.512;18.050;2022-12-16T11:45:17;-10.30;99.90
22081;DHT22;11207;59.512;18.050;2022-12-16T11:48:11;-10.20;99.90
22081;DHT22;11207;59.512;18.050;2022-12-16T11:51:01;-10.20;99.90
22081;DHT22;11207;59.512;18.050;2022-12-16T11:54:17;-10.20;99.90
22081;DHT22;11207;59.512;18.050;2022-12-16T11:57:09;-10.20;99.90
22081;DHT22;11207;59.512;18.050;2022-12-16T12:00:00;-10.10;99.90
22081;DHT22;11207;59.512;18.050;2022-12-16T12:03:05;-10.10;99.90
22081;DHT22;11207;59.512;18.050;2022-12-16T12:11:28;-9.90;99.90
22081;DHT22;11207;59.512;18.050;2022-12-16T12:14:32;-9.80;99.90
22081;DHT22;11207;59.512;18.050;2022-12-16T12:17:43;-9.90;99.90
22081;DHT22;11207;59.512;18.050;2022-12-16T12:20:38;-10.00;99.90
22081;DHT22;11207;59.512;18.050;2022-12-16T12:27:29;-9.80;99.90
22081;DHT22;11207;59.512;18.050;2022-12-16T12:30:18;-9.70;99.90
22081;DHT22;11207;59.512;18.050;2022-12-16T12:36:11;-9.60;99.90
22081;DHT22;11207;59.512;18.050;2022-12-16T12:42:08;-9.60;99.90
22081;DHT22;11207;59.512;18.050;2022-12-16T12:45:37;-9.70;99.90
22081;DHT22;11207;59.512;18.050;2022-12-16T12:48:30;-9.80;99.90
22081;DHT22;11207;59.512;18.050;2022-12-16T12:51:28;-9.80;99.90
22081;DHT22;11207;59.512;18.050;2022-12-16T12:54:38;-9.70;99.90
22081;DHT22;11207;59.512;18.050;2022-12-16T12:57:26;-9.60;99.90
22081;DHT22;11207;59.512;18.050;2022-12-16T13:00:19;-9.50;99.90
22081;DHT22;11207;59.512;18.050;2022-12-16T13:03:11;-9.40;99.90
22081;DHT22;11207;59.512;18.050;2022-12-16T13:05:58;-9.30;99.90
22081;DHT22;11207;59.512;18.050;2022-12-16T13:11:37;-9.10;99.90
22081;DHT22;11207;59.512;18.050;2022-12-16T13:20:46;-9.00;99.90
22081;DHT22;11207;59.512;18.050;2022-12-16T13:23:34;-9.00;99.90
22081;DHT22;11207;59.512;18.050;2022-12-16T13:26:20;-8.90;99.90
22081;DHT22;11207;59.512;18.050;2022-12-16T13:32:03;-9.30;99.90
22081;DHT22;11207;59.512;18.050;2022-12-16T13:35:16;-9.50;99.90
22081;DHT22;11207;59.512;18.050;2022-12-16T13:38:03;-9.60;99.90
22081;DHT22;11207;59.512;18.050;2022-12-16T13:40:56;-9.70;99.90
22081;DHT22;11207;59.512;18.050;2022-12-16T13:43:53;-9.80;99.90
22081;DHT22;11207;59.512;18.050;2022-12-16T13:46:46;-9.70;99.90
22081;DHT22;11207;59.512;18.050;2022-12-16T13:52:21;-9.60;99.90
22081;DHT22;11207;59.512;18.050;2022-12-16T13:55:22;-9.60;99.90
22081;DHT22;11207;59.512;18.050;2022-12-16T13:58:30;-9.50;99.90
22081;DHT22;11207;59.512;18.050;2022-12-16T14:01:19;-9.40;99.90
22081;DHT22;11207;59.512;18.050;2022-12-16T14:04:08;-9.40;99.90
22081;DHT22;11207;59.512;18.050;2022-12-16T14:06:57;-9.50;99.90
22081;DHT22;11207;59.512;18.050;2022-12-16T14:09:42;-9.50;99.90
22081;DHT22;11207;59.512;18.050;2022-12-16T14:12:57;-9.50;99.90
22081;DHT22;11207;59.512;18.050;2022-12-16T14:16:04;-9.40;99.90
22081;DHT22;11207;59.512;18.050;2022-12-16T14:19:00;-9.40;99.90
22081;DHT22;11207;59.512;18.050;2022-12-16T14:21:57;-9.40;99.90
22081;DHT22;11207;59.512;18.050;2022-12-16T14:24:41;-9.30;99.90
22081;DHT22;11207;59.512;18.050;2022-12-16T14:27:26;-9.20;99.90
22081;DHT22;11207;59.512;18.050;2022-12-16T14:30:22;-9.10;99.90
22081;DHT22;11207;59.512;18.050;2022-12-16T14:33:23;-9.20;99.90
22081;DHT22;11207;59.512;18.050;2022-12-16T14:36:22;-9.30;99.90
22081;DHT22;11207;59.512;18.050;2022-12-16T14:39:12;-9.40;99.90
22081;DHT22;11207;59.512;18.050;2022-12-16T14:41:57;-9.60;99.90
22081;DHT22;11207;59.512;18.050;2022-12-16T14:44:44;-9.60;99.90
22081;DHT22;11207;59.512;18.050;2022-12-16T14:47:29;-9.50;99.90
22081;DHT22;11207;59.512;18.050;2022-12-16T14:50:28;-9.50;99.90
22081;DHT22;11207;59.512;18.050;2022-12-16T14:53:16;-9.50;99.90
22081;DHT22;11207;59.512;18.050;2022-12-16T14:56:14;-9.60;99.90
22081;DHT22;11207;59.512;18.050;2022-12-16T14:59:15;-9.70;99.90
22081;DHT22;11207;59.512;18.050;2022-12-16T15:05:08;-10.00;99.90
22081;DHT22;11207;59.512;18.050;2022-12-16T15:07:52;-10.00;99.90
22081;DHT22;11207;59.512;18.050;2022-12-16T15:10:36;-10.10;99.90
22081;DHT22;11207;59.512;18.050;2022-12-16T15:13:21;-10.00;99.90
22081;DHT22;11207;59.512;18.050;2022-12-16T15:16:05;-10.00;99.90
22081;DHT22;11207;59.512;18.050;2022-12-16T15:18:57;-10.20;99.90
22081;DHT22;11207;59.512;18.050;2022-12-16T15:21:42;-10.20;99.90
22081;DHT22;11207;59.512;18.050;2022-12-16T15:24:31;-10.30;99.90
22081;DHT22;11207;59.512;18.050;2022-12-16T15:30:02;-10.50;99.90
22081;DHT22;11207;59.512;18.050;2022-12-16T15:32:53;-10.50;99.90
22081;DHT22;11207;59.512;18.050;2022-12-16T15:35:37;-10.40;99.90
22081;DHT22;11207;59.512;18.050;2022-12-16T15:38:29;-10.40;99.90
22081;DHT22;11207;59.512;18.050;2022-12-16T15:41:26;-10.50;99.90
22081;DHT22;11207;59.512;18.050;2022-12-16T15:44:16;-10.60;99.90
22081;DHT22;11207;59.512;18.050;2022-12-16T15:47:02;-10.60;99.90
22081;DHT22;11207;59.512;18.050;2022-12-16T15:49:47;-10.60;99.90
22081;DHT22;11207;59.512;18.050;2022-12-16T15:52:41;-10.60;99.90
22081;DHT22;11207;59.512;18.050;2022-12-16T16:01:14;-10.70;99.90
22081;DHT22;11207;59.512;18.050;2022-12-16T16:03:58;-10.80;99.90
22081;DHT22;11207;59.512;18.050;2022-12-16T16:06:50;-10.80;99.90
22081;DHT22;11207;59.512;18.050;2022-12-16T16:09:36;-10.70;99.90
22081;DHT22;11207;59.512;18.050;2022-12-16T16:12:22;-10.80;99.90
22081;DHT22;11207;59.512;18.050;2022-12-16T16:15:10;-10.80;99.90
22081;DHT22;11207;59.512;18.050;2022-12-16T16:17:57;-10.90;99.90
22081;DHT22;11207;59.512;18.050;2022-12-16T16:20:42;-11.00;99.90
22081;DHT22;11207;59.512;18.050;2022-12-16T16:23:26;-10.90;99.90
22081;DHT22;11207;59.512;18.050;2022-12-16T16:26:14;-10.90;99.90
22081;DHT22;11207;59.512;18.050;2022-12-16T16:28:58;-11.00;99.90
22081;DHT22;11207;59.512;18.050;2022-12-16T16:31:42;-10.90;99.90
22081;DHT22;11207;59.512;18.050;2022-12-16T16:34:27;-11.20;99.90
22081;DHT22;11207;59.512;18.050;2022-12-16T16:37:15;-11.30;99.90
22081;DHT22;11207;59.512;18.050;2022-12-16T16:40:00;-11.60;99.90
22081;DHT22;11207;59.512;18.050;2022-12-16T16:42:45;-11.70;99.90
22081;DHT22;11207;59.512;18.050;2022-12-16T16:45:29;-11.50;99.90
22081;DHT22;11207;59.512;18.050;2022-12-16T16:48:15;-11.50;99.90
22081;DHT22;11207;59.512;18.050;2022-12-16T16:51:01;-11.30;99.90
22081;DHT22;11207;59.512;18.050;2022-12-16T16:53:45;-11.40;99.90
22081;DHT22;11207;59.512;18.050;2022-12-16T16:56:32;-11.60;99.90
22081;DHT22;11207;59.512;18.050;2022-12-16T16:59:16;-11.50;99.90
22081;DHT22;11207;59.512;18.050;2022-12-16T17:02:01;-11.60;99.90
22081;DHT22;11207;59.512;18.050;2022-12-16T17:04:46;-11.50;99.90
22081;DHT22;11207;59.512;18.050;2022-12-16T17:07:30;-11.70;99.90
22081;DHT22;11207;59.512;18.050;2022-12-16T17:10:14;-11.60;99.90
22081;DHT22;11207;59.512;18.050;2022-12-16T17:12:58;-11.70;99.90
22081;DHT22;11207;59.512;18.050;2022-12-16T17:15:42;-11.70;99.90
22081;DHT22;11207;59.512;18.050;2022-12-16T17:18:26;-11.70;99.90
22081;DHT22;11207;59.512;18.050;2022-12-16T17:21:10;-11.70;99.90
22081;DHT22;11207;59.512;18.050;2022-12-16T17:23:55;-11.70;99.90
22081;DHT22;11207;59.512;18.050;2022-12-16T17:26:43;-11.60;99.90
22081;DHT22;11207;59.512;18.050;2022-12-16T17:29:28;-11.30;99.90
22081;DHT22;11207;59.512;18.050;2022-12-16T17:32:12;-11.20;99.90
22081;DHT22;11207;59.512;18.050;2022-12-16T17:34:57;-11.10;99.90
22081;DHT22;11207;59.512;18.050;2022-12-16T17:37:42;-11.10;99.90
22081;DHT22;11207;59.512;18.050;2022-12-16T17:40:55;-11.00;99.90
22081;DHT22;11207;59.512;18.050;2022-12-16T17:43:39;-11.00;99.90
22081;DHT22;11207;59.512;18.050;2022-12-16T17:46:23;-11.00;99.90
22081;DHT22;11207;59.512;18.050;2022-12-16T17:49:09;-10.90;99.90
22081;DHT22;11207;59.512;18.050;2022-12-16T17:51:53;-11.10;99.90
22081;DHT22;11207;59.512;18.050;2022-12-16T17:54:37;-11.10;99.90
22081;DHT22;11207;59.512;18.050;2022-12-16T17:57:21;-11.30;99.90
22081;DHT22;11207;59.512;18.050;2022-12-16T18:00:06;-11.20;99.90
22081;DHT22;11207;59.512;18.050;2022-12-16T18:02:50;-11.10;99.90
22081;DHT22;11207;59.512;18.050;2022-12-16T18:05:55;-11.00;99.90
22081;DHT22;11207;59.512;18.050;2022-12-16T18:08:40;-10.90;99.90
22081;DHT22;11207;59.512;18.050;2022-12-16T18:11:24;-10.70;99.90
22081;DHT22;11207;59.512;18.050;2022-12-16T18:14:09;-10.60;99.90
22081;DHT22;11207;59.512;18.050;2022-12-16T18:16:53;-10.50;99.90
22081;DHT22;11207;59.512;18.050;2022-12-16T18:19:38;-10.40;99.90
22081;DHT22;11207;59.512;18.050;2022-12-16T18:22:22;-10.20;99.90
22081;DHT22;11207;59.512;18.050;2022-12-16T18:25:06;-10.10;99.90
22081;DHT22;11207;59.512;18.050;2022-12-16T18:27:50;-10.20;99.90
22081;DHT22;11207;59.512;18.050;2022-12-16T18:30:35;-10.10;99.90